Weather History for Chicago Lansing, IL

Change the Weather History Date:

Thursday, August 8, 2013

  Actual Average (KMDW) Record (KMDW)
Temperature  
Mean Temperature 72 °F 75 °F  
Max Temperature 77 °F 83 °F 103 °F (1934)
Min Temperature 67 °F 67 °F 52 °F (1976)
Degree Days  
Heating Degree Days 0 0  
Month to date heating degree days 0  
Since 1 June heating degree days 32  
Since 1 July heating degree days 1  
Cooling Degree Days 6 10  
Month to date cooling degree days 80  
Year to date cooling degree days 702  
Since 1 June cooling degree days 628  
Growing Degree Days 22 (Base 50)    
Moisture  
Dew Point 58 °F    
Average Humidity 65    
Maximum Humidity 84    
Minimum Humidity 44    
Precipitation  
Precipitation 0.00 in 0.13 in 2.35 in (1977)
Month to date precipitation 1.09  
Year to date precipitation 23.65  
Sea Level Pressure  
Sea Level Pressure 29.99 in    
Wind  
Wind Speed 7 mph (NE)    
Max Wind Speed 13 mph    
Max Gust Speed 17 mph    
Visibility 10 miles    
Events      
T = Trace of Precipitation, MM = Missing Value Source: NWS Daily Summary

Daily Weather History Graph

Daily Weather History Graph

Search for Another Location

Airport:

Trip Planner

Search our weather history database for the weather conditions in past years. The results will help you decide how hot, cold, wet, or windy it might be!

Date:

Astronomy

Aug. 08, 2013 Rise Set
Actual Time 5:51 AM CDT 7:58 PM CDT
Civil Twilight 5:21 AM CDT 8:29 PM CDT
Nautical Twilight 4:44 AM CDT 9:06 PM CDT
Astronomical Twilight 4:03 AM CDT 9:47 PM CDT
Moon 7:40 AM CDT (8/8) 8:34 PM CDT (8/8)
Length of Visible Light 15h 07m
Length of Day
14h 06m
Waxing Crescent, 3% of the Moon is Illuminated
Aug 8
Waxing Crescent
Aug 14
First Quarter
Aug 20
Full
Aug 28
Last Quarter
Sep 5
New

Hourly Weather History & Observations

Time (CDT) Temp. Dew Point Humidity Pressure Visibility Wind Dir Wind Speed Gust Speed Precip Events Conditions
12:15 AM 69.1 °F 63.1 °F 81% 29.95 in 10.0 mi NE 3.5 mph - N/A   Scattered Clouds
12:35 AM 68.5 °F 63.5 °F 84% 29.96 in 10.0 mi Calm Calm - N/A   Scattered Clouds
12:55 AM 68.4 °F 63.1 °F 83% 29.96 in 10.0 mi Calm Calm - N/A   Clear
1:15 AM 68.0 °F 62.2 °F 82% 29.96 in 10.0 mi Calm Calm - N/A   Scattered Clouds
1:35 AM 68.9 °F 61.2 °F 76% 29.96 in 10.0 mi NNE 3.5 mph - N/A   Overcast
1:55 AM 68.9 °F 61.0 °F 76% 29.96 in 10.0 mi NNE 4.6 mph - N/A   Scattered Clouds
2:15 AM 68.5 °F 61.2 °F 77% 29.96 in 10.0 mi NNE 3.5 mph - N/A   Scattered Clouds
2:35 AM 68.5 °F 60.8 °F 76% 29.96 in 10.0 mi NE 9.2 mph - N/A   Mostly Cloudy
2:55 AM 69.1 °F 61.0 °F 75% 29.97 in 10.0 mi ENE 6.9 mph - N/A   Overcast
3:15 AM 68.9 °F 61.3 °F 77% 29.96 in 10.0 mi NE 8.1 mph - N/A   Mostly Cloudy
3:35 AM 68.4 °F 61.9 °F 80% 29.96 in 10.0 mi NE 6.9 mph - N/A   Scattered Clouds
3:55 AM 68.0 °F 62.2 °F 82% 29.96 in 10.0 mi NE 8.1 mph - N/A   Scattered Clouds
4:15 AM 67.8 °F 62.4 °F 83% 29.97 in 10.0 mi NE 6.9 mph - N/A   Mostly Cloudy
4:35 AM 68.0 °F 62.6 °F 83% 29.96 in 10.0 mi NE 9.2 mph - N/A   Overcast
4:55 AM 68.0 °F 62.6 °F 83% 29.96 in 10.0 mi ENE 5.8 mph - N/A   Overcast
5:15 AM 67.6 °F 62.1 °F 82% 29.96 in 10.0 mi NE 8.1 mph - N/A   Mostly Cloudy
5:35 AM 67.3 °F 62.2 °F 84% 29.96 in 10.0 mi NE 6.9 mph - N/A   Scattered Clouds
5:55 AM 67.5 °F 62.6 °F 84% 29.97 in 10.0 mi Calm Calm - N/A   Overcast
6:15 AM 67.1 °F 61.2 °F 81% 29.98 in 10.0 mi NE 6.9 mph - N/A   Mostly Cloudy
6:35 AM 67.1 °F 60.4 °F 79% 29.97 in 10.0 mi NE 9.2 mph - N/A   Scattered Clouds
6:55 AM 67.5 °F 60.8 °F 79% 29.97 in 10.0 mi ENE 5.8 mph - N/A   Clear
7:15 AM 68.0 °F 61.2 °F 79% 29.97 in 10.0 mi ENE 8.1 mph - N/A   Clear
7:35 AM 68.9 °F 60.3 °F 74% 29.98 in 10.0 mi NE 10.4 mph - N/A   Scattered Clouds
7:55 AM 69.1 °F 59.7 °F 72% 29.99 in 10.0 mi NE 9.2 mph - N/A   Mostly Cloudy
8:15 AM 68.5 °F 59.2 °F 72% 30.01 in 10.0 mi ENE 12.7 mph - N/A   Overcast
8:35 AM 68.4 °F 59.2 °F 72% 30.02 in 10.0 mi NE 11.5 mph - N/A   Overcast
8:55 AM 70.3 °F 59.2 °F 68% 30.02 in 10.0 mi NE 12.7 mph 16.1 mph N/A   Mostly Cloudy
9:15 AM 70.9 °F 59.0 °F 66% 30.01 in 10.0 mi NE 11.5 mph 16.1 mph N/A   Mostly Cloudy
9:35 AM 72.1 °F 59.5 °F 64% 30.01 in 10.0 mi NE 11.5 mph 16.1 mph N/A   Mostly Cloudy
9:55 AM 72.1 °F 58.8 °F 63% 30.00 in 10.0 mi NE 10.4 mph 17.3 mph N/A   Scattered Clouds
10:15 AM 72.7 °F 58.6 °F 61% 30.00 in 10.0 mi ENE 10.4 mph - N/A   Clear
10:35 AM 73.4 °F 58.3 °F 59% 30.01 in 10.0 mi NE 3.5 mph 17.3 mph N/A   Clear
10:55 AM 73.4 °F 58.5 °F 59% 30.02 in 10.0 mi NNE 11.5 mph - N/A   Scattered Clouds
11:15 AM 74.1 °F 57.9 °F 57% 30.03 in 10.0 mi NNE 10.4 mph - N/A   Scattered Clouds
11:35 AM 74.5 °F 57.9 °F 56% 30.03 in 10.0 mi NE 9.2 mph - N/A   Scattered Clouds
11:55 AM 75.2 °F 57.7 °F 54% 30.02 in 10.0 mi NE 9.2 mph - N/A   Clear
12:15 PM 75.4 °F 56.8 °F 52% 30.01 in 10.0 mi NE 8.1 mph - N/A   Scattered Clouds
12:35 PM 76.3 °F 56.7 °F 51% 30.01 in 10.0 mi NE 8.1 mph - N/A   Clear
12:55 PM 75.9 °F 57.2 °F 52% 30.00 in 10.0 mi NE 10.4 mph - N/A   Clear
1:15 PM 75.6 °F 56.5 °F 51% 30.00 in 10.0 mi NE 11.5 mph - N/A   Clear
1:35 PM 75.0 °F 56.3 °F 52% 29.99 in 10.0 mi NE 10.4 mph - N/A   Clear
1:55 PM 75.0 °F 56.7 °F 53% 29.99 in 10.0 mi NE 9.2 mph 17.3 mph N/A   Clear
2:15 PM 74.5 °F 56.3 °F 53% 29.99 in 10.0 mi NE 10.4 mph - N/A   Clear
2:35 PM 75.2 °F 56.7 °F 52% 29.99 in 10.0 mi NE 10.4 mph - N/A   Clear
2:55 PM 75.7 °F 56.3 °F 51% 29.99 in 10.0 mi NE 8.1 mph - N/A   Clear
3:15 PM 75.0 °F 55.2 °F 50% 29.99 in 10.0 mi North 10.4 mph - N/A   Scattered Clouds
3:35 PM 74.8 °F 51.4 °F 44% 29.99 in 10.0 mi ENE 12.7 mph - N/A   Scattered Clouds
3:55 PM 74.3 °F 54.3 °F 50% 29.99 in 10.0 mi NE 8.1 mph - N/A   Clear
4:15 PM 74.7 °F 54.7 °F 50% 29.99 in 10.0 mi NNE 11.5 mph - N/A   Clear
4:35 PM 75.0 °F 53.8 °F 47% 29.98 in 10.0 mi NE 12.7 mph - N/A   Clear
4:55 PM 73.4 °F 53.1 °F 49% 29.97 in 10.0 mi North 9.2 mph 16.1 mph N/A   Clear
5:15 PM 73.6 °F 53.6 °F 50% 29.98 in 10.0 mi NNE 10.4 mph - N/A   Clear
5:35 PM 73.4 °F 51.8 °F 47% 29.99 in 10.0 mi NNE 11.5 mph - N/A   Clear
5:55 PM 73.2 °F 52.7 °F 48% 29.99 in 10.0 mi North 8.1 mph - N/A   Clear
6:15 PM 72.9 °F 50.9 °F 46% 29.99 in 10.0 mi North 9.2 mph - N/A   Clear
6:35 PM 71.1 °F 52.9 °F 53% 29.99 in 10.0 mi NNE 11.5 mph 16.1 mph N/A   Clear
6:55 PM 70.5 °F 54.0 °F 56% 29.99 in 10.0 mi North 9.2 mph - N/A   Clear
7:15 PM 69.8 °F 52.7 °F 54% 29.99 in 10.0 mi NNE 8.1 mph - N/A   Clear
7:35 PM 69.3 °F 53.6 °F 57% 30.00 in 10.0 mi North 4.6 mph - N/A   Clear
7:55 PM 68.9 °F 53.6 °F 58% 30.00 in 10.0 mi North 4.6 mph - N/A   Clear
8:15 PM 68.4 °F 53.6 °F 59% 29.99 in 10.0 mi North 6.9 mph - N/A   Clear
8:35 PM 68.2 °F 53.2 °F 59% 29.99 in 10.0 mi NNE 4.6 mph - N/A   Clear
8:55 PM 68.2 °F 52.7 °F 58% 30.00 in 10.0 mi NE 3.5 mph - N/A   Clear
9:15 PM 68.0 °F 53.8 °F 60% 30.01 in 10.0 mi NE 5.8 mph - N/A   Clear
9:35 PM 67.8 °F 54.5 °F 62% 30.01 in 10.0 mi NE 3.5 mph - N/A   Clear
9:55 PM 68.0 °F 54.7 °F 62% 30.01 in 10.0 mi NE 6.9 mph - N/A   Clear
10:15 PM 67.8 °F 55.4 °F 64% 30.01 in 10.0 mi NE 6.9 mph - N/A   Clear
10:35 PM 68.0 °F 55.8 °F 65% 30.00 in 10.0 mi NE 4.6 mph - N/A   Clear
10:55 PM 67.6 °F 56.3 °F 67% 30.00 in 10.0 mi NE 5.8 mph - N/A   Clear
11:15 PM 67.5 °F 56.5 °F 68% 30.00 in 10.0 mi NE 8.1 mph - N/A   Clear
11:35 PM 67.5 °F 56.7 °F 68% 30.00 in 10.0 mi NNE 6.9 mph - N/A   Clear
11:55 PM 67.3 °F 56.7 °F 69% 30.00 in 10.0 mi NNE 5.8 mph - N/A   Clear